Time;durP1;ratioP1;P1;durP2;ratioP2;P2;SDS_P1;SDS_P2;PMS_P1;PMS_P2;Temp;Humidity;BMP_temperature;BMP_pressure;BME280_temperature;BME280_humidity;BME280_pressure;Samples;Min_cycle;Max_cycle;Signal;HPM_P1;HPM_P2
2020/12/22 00:02:00;;;;;;;3.03;1.80;;;11.20;1.00;;;;;;5054347;28;20063;-92
2020/12/22 00:04:26;;;;;;;2.38;1.55;;;11.10;1.00;;;;;;5056849;28;20031;-93
2020/12/22 00:06:58;;;;;;;2.22;1.60;;;11.10;1.00;;;;;;5052991;28;20025;-92
2020/12/22 00:09:24;;;;;;;1.45;1.33;;;11.00;1.00;;;;;;5055831;28;20024;-93
2020/12/22 00:11:51;;;;;;;2.08;1.52;;;11.00;1.00;;;;;;5056090;28;20032;-92
2020/12/22 00:14:16;;;;;;;4.03;2.13;;;10.90;1.00;;;;;;5054662;28;20166;-91
2020/12/22 00:16:42;;;;;;;4.63;2.20;;;10.90;1.00;;;;;;5055767;28;20491;-92
2020/12/22 00:19:08;;;;;;;3.20;1.48;;;10.80;1.00;;;;;;5056213;28;20046;-92
2020/12/22 00:21:34;;;;;;;3.13;1.30;;;10.80;1.00;;;;;;5055523;28;20484;-92
2020/12/22 00:24:01;;;;;;;1.25;1.00;;;10.80;1.00;;;;;;5054761;28;20074;-94
2020/12/22 00:26:26;;;;;;;1.85;1.10;;;10.80;1.00;;;;;;5053664;28;20127;-95
2020/12/22 00:28:52;;;;;;;1.80;1.30;;;10.70;1.00;;;;;;5038903;28;20049;-93
2020/12/22 00:31:18;;;;;;;1.80;1.40;;;10.60;1.00;;;;;;5035231;28;20029;-93
2020/12/22 00:33:44;;;;;;;1.92;1.38;;;10.60;1.00;;;;;;5035706;28;20025;-92
2020/12/22 00:36:10;;;;;;;2.00;1.27;;;10.60;1.00;;;;;;5034104;28;20033;-93
2020/12/22 00:38:35;;;;;;;1.92;1.20;;;10.60;1.00;;;;;;5031259;28;20052;-92
2020/12/22 00:41:01;;;;;;;1.83;1.15;;;10.60;1.00;;;;;;5034118;28;20037;-94
2020/12/22 00:43:27;;;;;;;1.85;1.33;;;10.60;1.00;;;;;;5036756;28;20031;-95
2020/12/22 00:45:53;;;;;;;1.80;1.30;;;10.60;1.00;;;;;;5037744;28;20025;-92
2020/12/22 00:48:18;;;;;;;1.67;1.50;;;10.60;1.00;;;;;;5036585;28;20103;-91
2020/12/22 00:50:44;;;;;;;1.48;1.25;;;10.60;1.00;;;;;;5025515;28;20072;-92
2020/12/22 00:53:09;;;;;;;4.05;1.50;;;10.50;1.00;;;;;;5027371;28;20031;-91
2020/12/22 00:55:35;;;;;;;2.50;1.20;;;10.50;1.00;;;;;;5036483;28;20033;-91
2020/12/22 00:58:01;;;;;;;1.48;1.20;;;10.60;1.00;;;;;;5035639;28;20051;-93
2020/12/22 01:00:26;;;;;;;1.65;1.42;;;10.60;1.00;;;;;;5035565;28;20040;-92
2020/12/22 01:02:52;;;;;;;3.08;1.13;;;10.60;1.00;;;;;;5032784;28;20033;-93
2020/12/22 01:05:17;;;;;;;2.30;1.30;;;10.60;1.00;;;;;;5038176;28;20036;-88
2020/12/22 01:07:43;;;;;;;2.70;1.30;;;10.50;1.00;;;;;;5036664;28;20439;-89
2020/12/22 01:10:09;;;;;;;1.20;1.10;;;10.60;1.00;;;;;;5051300;28;20104;-92
2020/12/22 01:12:34;;;;;;;2.58;1.30;;;10.50;1.00;;;;;;5036946;28;20078;-89
2020/12/22 01:15:00;;;;;;;1.38;1.10;;;10.50;1.00;;;;;;5036933;28;20021;-91
2020/12/22 01:17:26;;;;;;;1.63;1.20;;;10.50;1.00;;;;;;5055442;28;20515;-91
2020/12/22 01:19:53;;;;;;;1.15;1.05;;;10.40;1.00;;;;;;5037865;28;20021;-91
2020/12/22 01:22:19;;;;;;;1.67;1.05;;;10.40;1.00;;;;;;5037512;28;20041;-91
2020/12/22 01:24:45;;;;;;;1.17;1.08;;;10.40;1.00;;;;;;5055490;28;20045;-91
2020/12/22 01:27:10;;;;;;;2.40;1.50;;;10.40;1.00;;;;;;5041796;28;20068;-91
2020/12/22 01:29:36;;;;;;;2.67;1.30;;;10.30;1.00;;;;;;5046828;28;20025;-91
2020/12/22 01:32:02;;;;;;;1.80;1.30;;;10.30;1.00;;;;;;5037597;28;20120;-91
2020/12/22 01:34:27;;;;;;;2.88;1.40;;;10.10;1.00;;;;;;5038656;28;20029;-91
2020/12/22 01:36:53;;;;;;;1.40;1.23;;;10.10;1.00;;;;;;5037198;28;20040;-91
2020/12/22 01:39:18;;;;;;;1.60;1.33;;;10.10;1.00;;;;;;5037578;28;20052;-90
2020/12/22 01:41:44;;;;;;;2.03;1.25;;;10.00;1.00;;;;;;5037268;28;20404;-91
2020/12/22 01:44:15;;;;;;;2.00;1.70;;;9.90;1.00;;;;;;5037275;28;20021;-91
2020/12/22 01:46:45;;;;;;;4.03;1.40;;;9.80;1.00;;;;;;5037103;28;20106;-90
2020/12/22 01:49:16;;;;;;;1.65;1.30;;;9.80;1.00;;;;;;5054991;28;20021;-91
2020/12/22 01:51:44;;;;;;;1.50;1.40;;;9.80;1.00;;;;;;5036692;28;20083;-91
2020/12/22 01:54:10;;;;;;;4.28;2.00;;;9.80;1.00;;;;;;5037186;28;20112;-90
2020/12/22 01:56:37;;;;;;;2.83;1.63;;;9.80;1.00;;;;;;5037040;28;20452;-91
2020/12/22 01:59:03;;;;;;;1.40;1.27;;;9.80;1.00;;;;;;5037236;28;20074;-90
2020/12/22 02:01:31;;;;;;;1.85;1.23;;;9.80;1.00;;;;;;5037060;28;20083;-91
2020/12/22 02:03:58;;;;;;;1.55;1.30;;;9.80;1.00;;;;;;5036833;28;20021;-91
2020/12/22 02:06:24;;;;;;;2.63;1.45;;;9.80;1.00;;;;;;5033959;28;20397;-91
2020/12/22 02:08:50;;;;;;;2.22;1.63;;;9.70;1.00;;;;;;5054302;28;20017;-91
2020/12/22 02:11:23;;;;;;;2.30;1.70;;;9.60;1.00;;;;;;5036522;28;20025;-91
2020/12/22 02:13:48;;;;;;;1.40;1.30;;;9.50;1.00;;;;;;5036482;28;20036;-90
2020/12/22 02:16:14;;;;;;;2.00;1.38;;;9.50;1.00;;;;;;5036370;28;20112;-91
2020/12/22 02:18:40;;;;;;;2.90;1.60;;;9.40;1.00;;;;;;5037049;28;20029;-91
2020/12/22 02:21:05;;;;;;;1.50;1.40;;;9.40;1.00;;;;;;5036641;28;20064;-91
2020/12/22 02:23:31;;;;;;;2.30;1.70;;;9.40;1.00;;;;;;5036761;28;20045;-91
2020/12/22 02:25:56;;;;;;;1.83;1.60;;;9.40;1.00;;;;;;5036518;28;20123;-91
2020/12/22 02:28:22;;;;;;;2.72;1.63;;;9.40;1.00;;;;;;5047073;28;20041;-91
2020/12/22 02:30:48;;;;;;;1.58;1.45;;;9.40;1.00;;;;;;5056059;28;20025;-90
2020/12/22 02:33:13;;;;;;;5.53;1.73;;;9.40;1.00;;;;;;5053219;28;20021;-91
2020/12/22 02:35:40;;;;;;;2.70;1.73;;;9.40;1.00;;;;;;5070862;28;20522;-91
2020/12/22 02:38:06;;;;;;;1.90;1.70;;;9.30;1.00;;;;;;5056599;28;20017;-90
2020/12/22 02:40:31;;;;;;;3.05;2.00;;;9.30;1.00;;;;;;5047900;28;20381;-91
2020/12/22 02:43:11;;;;;;;3.45;1.85;;;9.30;1.00;;;;;;5056088;28;20024;-91
2020/12/22 02:45:38;;;;;;;2.00;1.73;;;9.30;1.00;;;;;;5056766;28;20035;-91
2020/12/22 02:48:04;;;;;;;2.70;1.95;;;9.30;1.00;;;;;;5052705;28;20021;-91
2020/12/22 02:50:31;;;;;;;3.47;1.90;;;9.20;1.00;;;;;;5052699;28;20424;-91
2020/12/22 02:52:56;;;;;;;2.30;2.10;;;9.20;1.00;;;;;;5052413;28;20017;-91
2020/12/22 02:55:22;;;;;;;2.25;2.05;;;9.10;1.00;;;;;;5067115;28;20043;-91
2020/12/22 02:57:48;;;;;;;2.53;2.20;;;9.10;1.00;;;;;;5056142;28;20028;-91
2020/12/22 03:00:14;;;;;;;2.40;2.20;;;9.10;1.00;;;;;;5055884;28;20028;-91
2020/12/22 03:02:39;;;;;;;2.25;2.05;;;9.10;1.00;;;;;;5056049;28;20062;-91
2020/12/22 03:05:05;;;;;;;2.55;1.90;;;9.10;1.00;;;;;;5056108;28;20040;-91
2020/12/22 03:07:30;;;;;;;3.63;2.20;;;9.00;1.00;;;;;;5051069;28;20020;-91
2020/12/22 03:09:56;;;;;;;3.40;2.10;;;9.10;1.00;;;;;;5055655;28;20031;-90
2020/12/22 03:12:22;;;;;;;2.85;2.20;;;9.00;1.00;;;;;;5052397;28;20033;-91
2020/12/22 03:14:47;;;;;;;2.63;2.30;;;9.00;1.00;;;;;;5055496;28;20373;-90
2020/12/22 03:17:14;;;;;;;3.38;2.80;;;8.90;1.00;;;;;;5055448;28;20032;-90
2020/12/22 03:19:40;;;;;;;4.72;2.97;;;8.90;1.00;;;;;;5073650;28;20119;-91
2020/12/22 03:22:06;;;;;;;4.53;3.17;;;8.90;1.00;;;;;;5054573;28;20032;-91
2020/12/22 03:24:32;;;;;;;4.30;2.85;;;8.90;1.00;;;;;;5065406;28;20511;-91
2020/12/22 03:26:58;;;;;;;3.08;2.70;;;8.90;1.00;;;;;;5055300;28;20025;-91
2020/12/22 03:29:24;;;;;;;4.57;3.20;;;8.90;1.00;;;;;;5046109;28;20496;-90
2020/12/22 03:31:49;;;;;;;3.40;3.08;;;8.90;1.00;;;;;;5055682;28;20035;-91
2020/12/22 03:34:15;;;;;;;5.50;2.92;;;8.90;1.00;;;;;;5033638;28;20477;-90
2020/12/22 03:36:41;;;;;;;5.05;3.08;;;8.90;1.00;;;;;;5030212;28;20083;-91
2020/12/22 03:39:06;;;;;;;3.72;3.20;;;8.80;1.00;;;;;;5042078;28;20037;-90
2020/12/22 03:41:32;;;;;;;4.10;3.15;;;8.80;1.00;;;;;;5021910;28;20095;-91
2020/12/22 03:43:57;;;;;;;4.20;3.05;;;8.80;1.00;;;;;;5045675;28;20023;-91
2020/12/22 03:46:23;;;;;;;3.67;3.35;;;8.80;1.00;;;;;;5051485;28;20055;-91
2020/12/22 03:48:49;;;;;;;4.32;3.70;;;8.70;1.00;;;;;;5048449;28;20025;-91
2020/12/22 03:51:15;;;;;;;4.40;3.53;;;8.70;1.00;;;;;;5032146;28;20616;-91
2020/12/22 03:53:41;;;;;;;4.38;3.45;;;8.80;1.00;;;;;;5055984;28;20602;-90
2020/12/22 03:56:07;;;;;;;5.25;3.78;;;8.90;1.00;;;;;;5047141;28;20025;-91
2020/12/22 03:58:32;;;;;;;3.47;3.17;;;8.90;1.00;;;;;;5046298;28;20036;-91
2020/12/22 04:00:58;;;;;;;5.40;3.30;;;9.00;1.00;;;;;;5046556;28;20028;-90
2020/12/22 04:03:25;;;;;;;5.47;3.38;;;8.80;1.00;;;;;;5051056;28;20031;-91
2020/12/22 04:05:51;;;;;;;4.40;3.00;;;8.70;1.00;;;;;;5052531;28;20020;-90
2020/12/22 04:08:17;;;;;;;4.65;3.20;;;8.60;1.00;;;;;;5044539;28;20040;-91
2020/12/22 04:10:43;;;;;;;4.10;3.08;;;8.60;1.00;;;;;;5045209;28;20057;-91
2020/12/22 04:13:09;;;;;;;4.03;3.63;;;8.60;1.00;;;;;;5039005;28;20048;-90
2020/12/22 04:15:35;;;;;;;5.05;3.13;;;8.50;1.00;;;;;;5042811;28;20031;-91
2020/12/22 04:18:02;;;;;;;5.65;3.67;;;8.40;1.00;;;;;;5054908;28;20035;-91
2020/12/22 04:20:27;;;;;;;5.63;3.90;;;8.40;1.00;;;;;;5037895;28;20517;-90
2020/12/22 04:22:53;;;;;;;4.00;3.40;;;8.40;1.00;;;;;;5042142;28;20040;-90
2020/12/22 04:25:18;;;;;;;4.00;3.33;;;8.40;1.00;;;;;;5060130;28;20524;-90
2020/12/22 04:27:44;;;;;;;4.32;3.42;;;8.20;1.00;;;;;;5047414;28;20054;-90
2020/12/22 04:30:10;;;;;;;4.40;3.30;;;8.20;1.00;;;;;;5045158;28;20457;-90
2020/12/22 04:32:35;;;;;;;4.05;3.20;;;8.20;1.00;;;;;;5052281;28;20028;-90
2020/12/22 04:35:01;;;;;;;3.15;2.78;;;8.20;1.00;;;;;;5035083;28;20024;-90
2020/12/22 04:37:26;;;;;;;3.30;3.00;;;8.30;1.00;;;;;;5054909;28;20032;-91
2020/12/22 04:39:52;;;;;;;4.10;2.88;;;8.10;1.00;;;;;;5038416;28;20029;-91
2020/12/22 04:42:21;;;;;;;5.53;3.85;;;8.10;1.00;;;;;;5046436;28;20043;-90
2020/12/22 04:44:49;;;;;;;5.18;3.17;;;8.10;1.00;;;;;;5035559;28;20393;-91
2020/12/22 04:47:20;;;;;;;3.90;3.00;;;8.30;1.00;;;;;;5055542;28;20120;-91
2020/12/22 04:49:53;;;;;;;3.78;2.95;;;8.10;1.00;;;;;;5046222;28;20028;-90
2020/12/22 04:52:22;;;;;;;4.20;3.42;;;8.10;1.00;;;;;;5037657;28;20132;-90
2020/12/22 04:54:49;;;;;;;3.90;3.58;;;8.00;1.00;;;;;;5046379;28;20462;-90
2020/12/22 04:57:16;;;;;;;5.95;3.42;;;8.00;1.00;;;;;;5047645;28;20059;-91
2020/12/22 04:59:44;;;;;;;3.75;3.17;;;8.20;1.00;;;;;;5054683;28;20045;-90
2020/12/22 05:02:10;;;;;;;5.18;2.78;;;8.10;1.00;;;;;;5035350;28;20063;-90
2020/12/22 05:04:37;;;;;;;3.90;3.28;;;8.10;1.00;;;;;;5067470;28;20522;-91
2020/12/22 05:07:05;;;;;;;5.50;3.75;;;8.10;1.00;;;;;;5040446;28;20056;-91
2020/12/22 05:09:30;;;;;;;4.30;3.70;;;8.10;1.00;;;;;;5035048;28;20029;-91
2020/12/22 05:11:56;;;;;;;4.35;3.75;;;8.20;1.00;;;;;;5035517;28;20055;-91
2020/12/22 05:14:24;;;;;;;4.47;3.97;;;8.30;1.00;;;;;;5038117;28;20036;-90
2020/12/22 05:16:50;;;;;;;4.97;4.40;;;8.30;1.00;;;;;;5039841;28;20033;-91
2020/12/22 05:19:18;;;;;;;4.88;4.38;;;8.40;1.00;;;;;;5040126;28;20037;-91
2020/12/22 05:21:44;;;;;;;6.80;4.20;;;8.40;1.00;;;;;;5042806;28;20373;-91
2020/12/22 05:24:12;;;;;;;5.63;4.63;;;8.50;1.00;;;;;;5050668;28;20484;-91
2020/12/22 05:26:40;;;;;;;5.63;4.50;;;8.50;1.00;;;;;;5041805;28;20021;-91
2020/12/22 05:29:18;;;;;;;5.80;4.30;;;8.50;1.00;;;;;;5035098;28;20404;-91
2020/12/22 05:31:49;;;;;;;5.78;4.20;;;8.50;1.00;;;;;;5031570;28;20059;-91
2020/12/22 05:34:17;;;;;;;7.20;4.30;;;8.60;1.00;;;;;;5033586;28;20032;-91
2020/12/22 05:36:44;;;;;;;5.22;4.72;;;8.50;1.00;;;;;;5037709;28;20040;-90
2020/12/22 05:39:11;;;;;;;8.35;5.82;;;8.40;1.00;;;;;;5037515;28;20027;-91
2020/12/22 05:41:38;;;;;;;8.00;6.05;;;8.30;1.00;;;;;;5052217;28;20036;-91
2020/12/22 05:44:05;;;;;;;7.63;6.80;;;8.20;1.00;;;;;;5028093;28;20025;-90
2020/12/22 05:46:36;;;;;;;8.95;6.53;;;8.20;1.00;;;;;;5023369;28;20084;-90
2020/12/22 05:49:07;;;;;;;7.43;6.10;;;8.10;1.00;;;;;;5032243;28;20084;-90
2020/12/22 05:51:33;;;;;;;7.05;6.05;;;8.00;1.00;;;;;;5033520;28;20035;-90
2020/12/22 05:54:12;;;;;;;6.85;5.70;;;8.10;1.00;;;;;;5029211;28;20112;-90
2020/12/22 05:56:38;;;;;;;7.88;6.53;;;8.10;1.00;;;;;;5033378;28;20040;-90
2020/12/22 05:59:19;;;;;;;7.88;6.72;;;8.10;1.00;;;;;;5020128;28;20033;-91
2020/12/22 06:01:44;;;;;;;7.80;5.90;;;8.20;1.00;;;;;;5028842;28;20044;-89
2020/12/22 06:04:11;;;;;;;6.00;4.88;;;8.30;1.00;;;;;;5026059;28;20033;-91
2020/12/22 06:06:37;;;;;;;6.38;5.65;;;8.40;1.00;;;;;;5030153;28;20086;-91
2020/12/22 06:09:03;;;;;;;9.23;5.32;;;8.40;1.00;;;;;;5036154;28;20020;-90
2020/12/22 06:11:29;;;;;;;6.65;5.47;;;8.40;1.00;;;;;;5029218;28;20033;-91
2020/12/22 06:13:57;;;;;;;8.95;5.75;;;8.40;1.00;;;;;;5025214;28;20029;-91
2020/12/22 06:16:22;;;;;;;8.05;5.68;;;8.30;1.00;;;;;;5036105;28;20071;-91
2020/12/22 06:18:51;;;;;;;8.82;6.57;;;8.20;1.00;;;;;;5021936;28;20068;-91
2020/12/22 06:21:20;;;;;;;13.05;10.85;;;8.30;1.00;;;;;;5026983;28;20041;-90
2020/12/22 06:23:47;;;;;;;12.18;7.88;;;8.30;1.00;;;;;;5034822;28;20473;-91
2020/12/22 06:26:13;;;;;;;8.35;6.63;;;8.20;1.00;;;;;;5030133;28;20496;-91
2020/12/22 06:28:40;;;;;;;7.45;6.05;;;8.20;1.00;;;;;;5050400;28;20079;-90
2020/12/22 06:31:16;;;;;;;8.57;7.18;;;8.30;1.00;;;;;;5053241;28;20021;-91
2020/12/22 06:33:42;;;;;;;12.48;8.55;;;8.30;1.00;;;;;;5049410;28;20021;-91
2020/12/22 06:36:13;;;;;;;7.80;6.57;;;8.40;1.00;;;;;;5052699;28;20123;-91
2020/12/22 06:39:02;;;;;;;8.75;7.13;;;8.50;1.00;;;;;;5056144;28;20020;-91
2020/12/22 06:41:33;;;;;;;10.95;7.93;;;8.50;1.00;;;;;;5055946;28;20059;-90
2020/12/22 06:44:17;;;;;;;10.02;5.97;;;8.50;1.00;;;;;;5064602;28;20063;-90
2020/12/22 06:46:48;;;;;;;6.78;6.03;;;8.50;1.00;;;;;;5063951;28;20028;-90
2020/12/22 06:49:13;;;;;;;8.25;6.35;;;8.50;1.00;;;;;;5049156;28;20477;-90
2020/12/22 06:51:42;;;;;;;7.72;6.53;;;8.50;1.00;;;;;;5052724;28;20040;-91
2020/12/22 06:54:13;;;;;;;7.30;6.25;;;8.60;1.00;;;;;;5052606;28;20029;-91
2020/12/22 06:56:50;;;;;;;7.57;6.45;;;8.70;1.00;;;;;;5071371;28;20036;-91
2020/12/22 06:59:37;;;;;;;9.00;6.82;;;8.80;1.00;;;;;;5051968;28;20029;-91
2020/12/22 07:02:03;;;;;;;9.82;7.03;;;8.90;1.00;;;;;;5073312;28;20029;-91
2020/12/22 07:04:39;;;;;;;8.15;7.35;;;8.90;1.00;;;;;;5055746;28;20021;-91
2020/12/22 07:07:04;;;;;;;9.50;7.90;;;9.00;1.00;;;;;;5050262;28;20056;-91
2020/12/22 07:09:38;;;;;;;9.80;8.80;;;9.00;1.00;;;;;;5045560;28;20445;-91
2020/12/22 07:12:07;;;;;;;11.05;7.68;;;9.00;1.00;;;;;;5051315;28;20024;-91
2020/12/22 07:14:34;;;;;;;12.13;8.30;;;9.10;1.00;;;;;;5053626;28;20028;-90
2020/12/22 07:17:00;;;;;;;12.02;8.23;;;9.10;1.00;;;;;;5073172;28;20461;-91
2020/12/22 07:19:32;;;;;;;10.65;8.52;;;9.20;1.00;;;;;;5051979;28;20029;-91
2020/12/22 07:22:06;;;;;;;11.73;8.00;;;9.30;1.00;;;;;;5047920;28;20077;-91
2020/12/22 07:24:33;;;;;;;9.73;7.72;;;9.30;1.00;;;;;;5055351;28;20028;-91
2020/12/22 07:27:00;;;;;;;6.45;5.70;;;9.30;1.00;;;;;;5053819;28;20056;-90
2020/12/22 07:29:26;;;;;;;8.10;5.72;;;9.30;1.00;;;;;;5055164;28;20028;-91
2020/12/22 07:31:52;;;;;;;8.90;5.68;;;9.30;1.00;;;;;;5054588;28;20480;-90
2020/12/22 07:34:19;;;;;;;8.88;5.88;;;9.40;1.00;;;;;;5055721;28;20135;-90
2020/12/22 07:36:46;;;;;;;8.23;6.95;;;9.30;1.00;;;;;;5055501;28;20031;-91
2020/12/22 07:39:22;;;;;;;7.28;5.65;;;9.30;1.00;;;;;;5055207;28;20021;-90
2020/12/22 07:41:49;;;;;;;8.98;6.93;;;9.40;1.00;;;;;;5053052;28;20531;-91
2020/12/22 07:44:16;;;;;;;7.65;6.32;;;9.40;1.00;;;;;;5054916;28;20027;-91
2020/12/22 07:46:43;;;;;;;7.53;6.43;;;9.40;1.00;;;;;;5053377;28;20043;-92
2020/12/22 07:49:11;;;;;;;8.80;6.60;;;9.40;1.00;;;;;;5054088;28;20028;-90
2020/12/22 07:51:40;;;;;;;6.75;5.50;;;9.40;1.00;;;;;;5067878;28;20021;-94
2020/12/22 07:54:06;;;;;;;5.95;4.80;;;9.50;1.00;;;;;;5051068;28;20147;-92
2020/12/22 07:56:35;;;;;;;7.65;5.30;;;10.00;1.00;;;;;;5051433;28;20112;-92
2020/12/22 07:59:06;;;;;;;6.20;5.15;;;11.00;1.00;;;;;;5052147;28;20446;-92
2020/12/22 08:01:48;;;;;;;7.78;5.13;;;11.90;1.00;;;;;;5051485;28;20037;-92
2020/12/22 08:04:15;;;;;;;7.45;5.10;;;13.20;1.00;;;;;;5052519;28;20031;-92
2020/12/22 08:06:42;;;;;;;5.60;4.70;;;14.90;99.90;;;;;;5070663;28;20041;-91
2020/12/22 08:09:08;;;;;;;5.95;4.40;;;15.70;99.90;;;;;;5064877;28;20091;-94
2020/12/22 08:11:35;;;;;;;5.82;4.78;;;16.40;99.90;;;;;;5052980;28;20032;-93
2020/12/22 08:14:03;;;;;;;6.05;4.93;;;15.10;99.90;;;;;;5055615;28;20031;-92
2020/12/22 08:16:31;;;;;;;6.68;4.88;;;13.50;99.90;;;;;;5059338;28;20078;-92
2020/12/22 08:18:58;;;;;;;6.18;4.97;;;12.50;1.00;;;;;;5057175;28;20024;-94
2020/12/22 08:21:25;;;;;;;5.47;4.82;;;11.90;1.00;;;;;;5059305;28;20223;-95
2020/12/22 08:23:52;;;;;;;6.97;5.22;;;11.60;1.00;;;;;;5058078;28;20021;-94
2020/12/22 08:26:18;;;;;;;6.65;5.40;;;11.40;1.00;;;;;;5058334;28;20471;-94
2020/12/22 08:28:56;;;;;;;8.48;5.50;;;11.10;1.00;;;;;;5053763;28;20053;-96
2020/12/22 08:31:24;;;;;;;6.82;5.88;;;11.10;1.00;;;;;;5058862;28;20037;-94
2020/12/22 08:33:58;;;;;;;6.97;5.78;;;11.00;1.00;;;;;;5062804;28;20027;-89
2020/12/22 08:36:27;;;;;;;6.53;5.18;;;11.00;1.00;;;;;;5060627;28;20234;-91
2020/12/22 08:39:11;;;;;;;6.82;5.40;;;11.00;1.00;;;;;;5050393;28;20025;-93
2020/12/22 08:41:37;;;;;;;6.68;5.47;;;10.90;1.00;;;;;;5050627;28;20029;-90
2020/12/22 08:44:05;;;;;;;8.68;5.18;;;11.00;1.00;;;;;;5048104;28;20484;-90
2020/12/22 08:46:31;;;;;;;6.82;5.60;;;11.00;1.00;;;;;;5051237;28;20027;-91
2020/12/22 08:49:15;;;;;;;8.82;5.25;;;11.10;1.00;;;;;;5046594;28;20511;-93
2020/12/22 08:51:42;;;;;;;7.53;4.88;;;11.30;1.00;;;;;;5048844;28;20185;-93
2020/12/22 08:54:08;;;;;;;6.10;5.15;;;11.40;1.00;;;;;;5051775;28;20032;-91
2020/12/22 08:56:34;;;;;;;6.30;4.93;;;11.60;1.00;;;;;;5070783;28;20024;-92
2020/12/22 08:59:02;;;;;;;7.72;4.95;;;11.70;1.00;;;;;;5056717;28;20052;-91
2020/12/22 09:01:51;;;;;;;7.68;4.70;;;11.80;1.00;;;;;;5056779;28;20119;-93
2020/12/22 09:04:17;;;;;;;5.25;4.03;;;12.00;1.00;;;;;;5057402;28;20036;-95
2020/12/22 09:06:44;;;;;;;5.25;4.38;;;12.10;1.00;;;;;;5058994;28;20024;-94
2020/12/22 09:09:16;;;;;;;5.95;4.28;;;12.30;1.00;;;;;;5055615;28;20111;-91
2020/12/22 09:11:43;;;;;;;8.00;4.78;;;12.50;1.00;;;;;;5075626;28;20082;-94
2020/12/22 09:14:19;;;;;;;5.55;4.25;;;12.20;1.00;;;;;;5064644;28;20036;-93
2020/12/22 09:16:54;;;;;;;6.88;4.53;;;12.30;1.00;;;;;;5057227;28;20039;-95
2020/12/22 09:19:28;;;;;;;5.93;4.60;;;12.60;1.00;;;;;;5061380;28;20032;-95
2020/12/22 09:21:59;;;;;;;5.75;4.40;;;13.00;1.00;;;;;;5060518;28;20452;-95
2020/12/22 09:24:25;;;;;;;5.65;4.70;;;13.30;1.00;;;;;;5072510;28;20055;-92
2020/12/22 09:26:55;;;;;;;6.82;4.03;;;13.70;1.00;;;;;;5056256;28;20029;-94
2020/12/22 09:29:21;;;;;;;5.78;4.53;;;13.60;1.00;;;;;;5056303;28;20028;-94
2020/12/22 09:31:47;;;;;;;5.80;4.38;;;14.20;99.90;;;;;;5057123;28;20051;-93
2020/12/22 09:34:13;;;;;;;7.13;4.60;;;15.80;99.90;;;;;;5053734;28;20492;-90
2020/12/22 09:36:39;;;;;;;7.28;4.20;;;16.90;99.90;;;;;;5075090;28;20033;-94
2020/12/22 09:39:04;;;;;;;5.10;4.30;;;20.20;99.90;;;;;;5057796;28;20025;-91
2020/12/22 09:41:31;;;;;;;4.72;4.10;;;19.90;99.90;;;;;;5054203;28;20488;-91
2020/12/22 09:43:57;;;;;;;6.25;4.43;;;18.50;99.90;;;;;;5050735;28;20162;-91
2020/12/22 09:46:23;;;;;;;4.95;4.18;;;17.50;99.90;;;;;;5048712;28;20033;-95
2020/12/22 09:48:49;;;;;;;6.03;4.60;;;17.00;99.90;;;;;;5038262;28;20017;-92
2020/12/22 09:51:15;;;;;;;7.22;4.82;;;17.50;99.90;;;;;;5046098;28;20100;-94
2020/12/22 09:53:41;;;;;;;8.20;4.70;;;17.50;99.90;;;;;;5060117;28;20016;-92
2020/12/22 09:56:06;;;;;;;7.53;5.00;;;17.10;99.90;;;;;;5057306;28;20025;-93
2020/12/22 09:58:32;;;;;;;6.75;5.07;;;16.90;99.90;;;;;;5057045;28;20473;-92
2020/12/22 10:00:58;;;;;;;5.20;4.68;;;17.00;99.90;;;;;;5057114;28;20149;-93
2020/12/22 10:03:24;;;;;;;6.35;5.28;;;17.30;99.90;;;;;;5057113;28;20075;-91
2020/12/22 10:05:49;;;;;;;7.53;5.55;;;17.40;99.90;;;;;;5056901;28;20052;-92
2020/12/22 10:08:15;;;;;;;9.23;6.60;;;17.60;99.90;;;;;;5052749;28;20385;-91
2020/12/22 10:10:40;;;;;;;8.55;7.65;;;17.50;99.90;;;;;;5053148;28;20443;-94
2020/12/22 10:13:06;;;;;;;9.50;8.50;;;16.70;99.90;;;;;;5041722;28;20021;-92
2020/12/22 10:15:32;;;;;;;9.10;6.95;;;15.70;99.90;;;;;;5073183;28;20039;-91
2020/12/22 10:17:57;;;;;;;8.77;7.88;;;15.70;99.90;;;;;;5056268;28;20029;-94
2020/12/22 10:20:23;;;;;;;7.85;5.97;;;15.60;99.90;;;;;;5056993;28;20035;-94
2020/12/22 10:22:48;;;;;;;7.68;6.30;;;15.20;99.90;;;;;;5057639;28;20025;-95
2020/12/22 10:25:14;;;;;;;8.75;6.95;;;15.30;99.90;;;;;;5057523;28;20028;-93
2020/12/22 10:27:40;;;;;;;7.70;6.82;;;15.50;99.90;;;;;;5056666;28;20135;-96
2020/12/22 10:30:06;;;;;;;8.35;6.57;;;16.00;99.90;;;;;;5062663;28;20067;-96
2020/12/22 10:32:33;;;;;;;7.82;6.90;;;15.70;99.90;;;;;;5066694;28;20369;-96
2020/12/22 10:35:01;;;;;;;8.52;6.50;;;15.90;99.90;;;;;;5060438;28;20052;-94
2020/12/22 10:37:27;;;;;;;8.15;6.85;;;16.30;99.90;;;;;;5076824;28;20062;-94
2020/12/22 10:39:53;;;;;;;8.23;7.05;;;16.60;99.90;;;;;;5057633;28;20039;-93
2020/12/22 10:42:19;;;;;;;8.98;7.03;;;16.50;99.90;;;;;;5056552;28;20654;-96
2020/12/22 10:44:44;;;;;;;7.82;6.28;;;16.20;99.90;;;;;;5059422;28;20028;-95
2020/12/22 10:47:11;;;;;;;7.68;6.30;;;16.20;99.90;;;;;;5056440;28;20016;-94
2020/12/22 10:49:36;;;;;;;9.05;6.60;;;15.90;99.90;;;;;;5056760;28;20024;-92
2020/12/22 10:52:02;;;;;;;9.18;6.68;;;15.90;99.90;;;;;;5058535;28;20032;-96
2020/12/22 10:54:28;;;;;;;9.32;6.32;;;15.70;99.90;;;;;;5057739;28;20029;-96
2020/12/22 10:56:54;;;;;;;7.88;6.75;;;15.30;99.90;;;;;;5053488;28;20029;-96
2020/12/22 10:59:19;;;;;;;9.57;6.60;;;15.20;99.90;;;;;;5053283;28;20028;-96
2020/12/22 11:01:49;;;;;;;8.15;6.47;;;15.10;99.90;;;;;;5053367;28;20417;-96
2020/12/22 11:04:14;;;;;;;7.25;6.10;;;14.80;99.90;;;;;;5053620;28;20029;-96
2020/12/22 11:09:08;;;;;;;8.20;6.07;;;14.50;99.90;;;;;;5054580;28;20028;-96
2020/12/22 11:11:34;;;;;;;6.50;5.78;;;14.70;99.90;;;;;;5053329;28;20404;-96
2020/12/22 11:13:59;;;;;;;9.32;6.65;;;14.60;99.90;;;;;;5053863;28;20028;-96
2020/12/22 11:16:28;;;;;;;7.68;6.00;;;14.60;99.90;;;;;;5053116;28;20025;-96
2020/12/22 11:18:55;;;;;;;8.55;5.93;;;14.70;99.90;;;;;;5053160;28;20121;-96
2020/12/22 11:21:23;;;;;;;9.73;6.10;;;14.80;99.90;;;;;;5054134;28;20056;-96
2020/12/22 11:23:52;;;;;;;11.30;5.93;;;14.70;99.90;;;;;;5053146;28;20092;-96
2020/12/22 11:26:22;;;;;;;7.57;5.72;;;14.80;99.90;;;;;;5053254;28;20025;-96
2020/12/22 11:28:49;;;;;;;9.15;6.15;;;14.80;99.90;;;;;;5052773;28;20475;-96
2020/12/22 11:31:15;;;;;;;6.35;5.50;;;14.70;99.90;;;;;;5053047;28;20029;-96
2020/12/22 11:33:41;;;;;;;9.95;5.75;;;14.80;99.90;;;;;;5052917;28;20025;-96
2020/12/22 11:36:11;;;;;;;6.95;5.50;;;14.70;99.90;;;;;;5052785;28;20108;-96
2020/12/22 11:38:38;;;;;;;7.25;5.43;;;14.70;99.90;;;;;;5053229;28;20115;-96
2020/12/22 11:41:04;;;;;;;6.70;6.00;;;14.60;99.90;;;;;;5052929;28;20017;-96
2020/12/22 11:43:30;;;;;;;8.10;6.30;;;14.60;99.90;;;;;;5052983;28;20036;-96
2020/12/22 11:45:56;;;;;;;8.68;6.35;;;14.60;99.90;;;;;;5052757;28;20021;-96
2020/12/22 11:48:24;;;;;;;6.80;5.55;;;14.80;99.90;;;;;;5052354;28;20074;-96
2020/12/22 11:50:54;;;;;;;8.18;5.93;;;15.00;99.90;;;;;;5052239;28;20029;-96
2020/12/22 11:53:21;;;;;;;7.05;6.35;;;15.10;99.90;;;;;;5052640;28;20029;-96
2020/12/22 11:55:47;;;;;;;6.55;5.85;;;15.20;99.90;;;;;;5053006;28;20106;-96
2020/12/22 11:58:13;;;;;;;6.85;5.45;;;15.30;99.90;;;;;;5052752;28;20029;-96
2020/12/22 12:00:39;;;;;;;6.28;5.68;;;15.10;99.90;;;;;;5052903;28;20211;-96
2020/12/22 12:03:05;;;;;;;9.02;6.20;;;15.00;99.90;;;;;;5052348;28;20393;-96
2020/12/22 12:05:30;;;;;;;8.05;6.47;;;15.00;99.90;;;;;;5052491;28;20021;-96
2020/12/22 12:07:56;;;;;;;6.32;5.07;;;15.10;99.90;;;;;;5052591;28;20510;-96
2020/12/22 12:10:22;;;;;;;6.88;5.55;;;15.30;99.90;;;;;;5052430;28;20021;-96
2020/12/22 12:12:47;;;;;;;7.55;6.72;;;15.20;99.90;;;;;;5052561;28;20492;-96
2020/12/22 12:15:13;;;;;;;17.33;11.23;;;15.20;99.90;;;;;;5052325;28;20057;-96
2020/12/22 12:17:40;;;;;;;15.75;11.15;;;15.30;99.90;;;;;;5052560;28;20033;-96
2020/12/22 12:20:06;;;;;;;7.00;6.30;;;15.50;99.90;;;;;;5052527;28;20036;-96
2020/12/22 12:22:35;;;;;;;7.10;6.40;;;15.70;99.90;;;;;;5052291;28;20435;-96
2020/12/22 12:25:01;;;;;;;7.95;6.30;;;17.10;99.90;;;;;;5052636;28;20021;-96
2020/12/22 12:27:26;;;;;;;6.32;5.70;;;19.60;99.90;;;;;;5052081;28;20065;-96
2020/12/22 12:29:52;;;;;;;9.02;5.95;;;22.20;99.90;;;;;;5052560;28;20400;-96
2020/12/22 12:32:18;;;;;;;7.28;5.72;;;23.70;99.90;;;;;;5052097;28;20033;-96
2020/12/22 12:34:43;;;;;;;8.15;6.20;;;24.50;99.90;;;;;;5052668;28;20025;-96
2020/12/22 12:37:09;;;;;;;7.40;6.60;;;23.50;99.90;;;;;;5052233;28;20078;-96
2020/12/22 12:39:35;;;;;;;9.80;6.55;;;23.60;99.90;;;;;;5052397;28;20496;-96
2020/12/22 12:42:00;;;;;;;7.45;6.10;;;23.70;99.90;;;;;;5052148;28;20076;-96
2020/12/22 12:44:26;;;;;;;7.00;6.30;;;24.20;99.90;;;;;;5052121;28;20128;-96
2020/12/22 12:46:52;;;;;;;8.18;6.43;;;24.60;99.90;;;;;;5052221;28;20021;-96
2020/12/22 12:49:19;;;;;;;7.53;6.47;;;25.10;99.90;;;;;;5051984;28;20025;-96
2020/12/22 12:51:44;;;;;;;7.30;6.18;;;24.50;99.90;;;;;;5051942;28;20473;-96
2020/12/22 12:54:11;;;;;;;7.55;6.10;;;24.70;99.90;;;;;;5052161;28;20075;-96
2020/12/22 12:56:37;;;;;;;6.57;5.97;;;24.30;99.90;;;;;;5052062;28;20033;-96
2020/12/22 12:59:03;;;;;;;6.65;5.60;;;23.70;99.90;;;;;;5052064;28;20431;-96
2020/12/22 13:01:28;;;;;;;7.18;5.78;;;24.70;99.90;;;;;;5054328;28;20551;-96